Flight Briefing for CPX228

Departure Arrival
Ted Stevens Anchorage International Airport (PANC)
Click to view FAA NOTAMS
Seattle-Tacoma International Airport (KSEA)
Click to view FAA NOTAMS
Departure Time Arrival Time
0000 UTC 0330 UTC
Aircraft Distance
B767-300BDSF 1257nm
Departure METAR Arrival METAR
PANC 192253Z 36004KT 10SM FEW035 SCT080 M01/M11 A3015 RMK AO2 SLP210 T10111106 KSEA 192316Z 20011KT 10SM -RA OVC013 06/03 A3001 RMK AO2 P0000 T00560033
Suggested Route
NOEND4 NOEND LAIRE BKA DUGGS YYJ MARNR7


View recent IFR Routes data
Notes



Charts and Procedures

Charts for PANC
No chart available
Charts for KSEA
No chart available

Ventusky Weather




{"cat":null,"equip":null,"transponder":null,"pbn":"PBN\/","maxpax":null,"oew":"0.0","mzfw":"0.0","mtow":"0.0","mlw":"0.0","maxfuel":"0.0"} DEVELOPMENTAL TEST USE ONLY